createdAt,value
2019-05-09T00:00:14.162Z,0.97
2019-05-09T00:05:17.544Z,1.13
2019-05-09T00:10:37.585Z,2.23
2019-05-09T00:15:27.602Z,2.70
2019-05-09T00:20:33.218Z,1.50
2019-05-09T00:25:36.720Z,0.90
2019-05-09T00:31:00.089Z,3.13
2019-05-09T00:36:04.352Z,1.10
2019-05-09T00:41:07.785Z,3.83
2019-05-09T00:46:14.106Z,1.97
2019-05-09T00:51:17.863Z,1.33
2019-05-09T00:56:21.145Z,2.00
2019-05-09T01:01:24.437Z,1.50
2019-05-09T01:06:27.952Z,2.80
2019-05-09T01:11:33.225Z,2.20
2019-05-09T01:16:36.234Z,2.10
2019-05-09T01:21:39.518Z,3.93
2019-05-09T01:26:43.574Z,3.57
2019-05-09T01:31:46.978Z,2.57
2019-05-09T01:36:53.903Z,2.70
2019-05-09T01:41:56.931Z,6.97
2019-05-09T01:47:00.218Z,2.13
2019-05-09T01:52:03.774Z,2.37
2019-05-09T01:57:07.262Z,2.80
2019-05-09T02:02:10.776Z,2.20
2019-05-09T02:07:14.058Z,2.23
2019-05-09T02:12:17.626Z,4.37
2019-05-09T02:17:34.407Z,1.90
2019-05-09T02:22:37.712Z,2.80
2019-05-09T02:27:43.507Z,4.17
2019-05-09T02:32:46.694Z,1.90
2019-05-09T02:37:50.225Z,2.17
2019-05-09T02:42:53.512Z,5.87
2019-05-09T02:47:59.039Z,1.13
2019-05-09T02:53:01.971Z,2.73
2019-05-09T02:58:08.331Z,2.03
2019-05-09T03:03:19.568Z,1.93
2019-05-09T03:08:21.527Z,1.67
2019-05-09T03:13:25.057Z,1.67
2019-05-09T03:18:28.728Z,1.90
2019-05-09T03:23:32.346Z,1.50
2019-05-09T03:28:38.803Z,4.93
2019-05-09T03:33:42.357Z,2.53
2019-05-09T03:38:47.564Z,3.90
2019-05-09T03:43:51.026Z,4.60
2019-05-09T03:48:58.981Z,2.17
2019-05-09T03:54:03.215Z,1.73
2019-05-09T03:59:08.314Z,4.37
2019-05-09T04:04:11.674Z,2.90
2019-05-09T04:09:14.947Z,2.27
2019-05-09T04:14:25.539Z,1.63
2019-05-09T04:19:28.807Z,3.07
2019-05-09T04:24:32.699Z,3.10
2019-05-09T04:29:37.407Z,1.83
2019-05-09T04:34:40.816Z,2.00
2019-05-09T04:39:44.111Z,3.90
2019-05-09T04:44:57.141Z,4.17
2019-05-09T04:49:54.097Z,1.93
2019-05-09T04:54:57.680Z,1.77
2019-05-09T05:00:00.904Z,5.67
2019-05-09T05:05:07.625Z,1.07
2019-05-09T05:10:10.545Z,3.13
2019-05-09T05:15:13.990Z,4.33
2019-05-09T05:20:18.916Z,3.77
2019-05-09T05:25:22.203Z,2.53
2019-05-09T05:30:25.777Z,3.90
2019-05-09T05:35:33.601Z,3.33
2019-05-09T05:40:45.096Z,2.90
2019-05-09T05:45:43.948Z,2.17
2019-05-09T05:50:48.781Z,3.80
2019-05-09T05:55:52.818Z,4.50
2019-05-09T06:00:58.679Z,1.77
2019-05-09T06:06:01.713Z,3.37
2019-05-09T06:11:09.489Z,2.60
2019-05-09T06:16:10.009Z,3.27
2019-05-09T06:21:13.387Z,1.57
2019-05-09T06:26:18.577Z,3.30
2019-05-09T06:31:21.679Z,3.63
2019-05-09T06:36:24.952Z,4.60
2019-05-09T06:41:28.727Z,1.60
2019-05-09T06:46:33.764Z,5.63
2019-05-09T06:51:38.766Z,3.23
2019-05-09T06:56:42.364Z,2.57
2019-05-09T07:01:59.475Z,2.13
2019-05-09T07:07:10.332Z,3.10
2019-05-09T07:12:13.842Z,3.77
2019-05-09T07:17:18.356Z,1.67
2019-05-09T07:22:23.617Z,3.17
2019-05-09T07:27:28.647Z,5.00
2019-05-09T07:32:48.879Z,1.63
2019-05-09T07:37:52.150Z,3.17
2019-05-09T07:42:55.434Z,1.30
2019-05-09T07:47:58.709Z,3.57
2019-05-09T07:53:01.984Z,1.07
2019-05-09T07:58:07.753Z,2.40
2019-05-09T08:03:13.112Z,1.07
2019-05-09T08:08:18.743Z,0.97
2019-05-09T08:13:22.373Z,2.30
2019-05-09T08:18:28.037Z,1.30
2019-05-09T08:23:30.942Z,2.33
2019-05-09T08:28:34.240Z,2.13
2019-05-09T08:33:38.271Z,2.20
2019-05-09T08:38:41.898Z,4.13
2019-05-09T08:43:48.370Z,4.07
2019-05-09T08:48:57.507Z,3.43
2019-05-09T08:54:00.723Z,3.13
2019-05-09T08:59:04.245Z,3.43
2019-05-09T09:04:08.197Z,3.70
2019-05-09T09:09:11.724Z,3.80
2019-05-09T09:14:15.268Z,2.43
2019-05-09T09:19:20.289Z,4.47
2019-05-09T09:24:23.753Z,2.70
2019-05-09T09:29:28.414Z,1.73
2019-05-09T09:34:31.976Z,2.53
2019-05-09T09:39:44.604Z,1.97
2019-05-09T09:44:43.469Z,1.10
2019-05-09T09:49:49.037Z,1.67
2019-05-09T09:54:52.043Z,5.43
2019-05-09T09:59:58.355Z,0.77
2019-05-09T10:05:01.863Z,0.43
2019-05-09T10:10:07.969Z,2.20
2019-05-09T10:15:18.992Z,2.70
2019-05-09T10:20:38.555Z,2.57
2019-05-09T10:25:41.894Z,3.40
2019-05-09T10:30:45.421Z,2.40
2019-05-09T10:35:48.753Z,4.53
2019-05-09T10:40:53.463Z,4.53
2019-05-09T10:46:18.502Z,3.03
2019-05-09T10:51:19.930Z,2.43
2019-05-09T10:56:23.236Z,1.97
2019-05-09T11:01:29.240Z,3.90
2019-05-09T11:06:31.543Z,2.33
2019-05-09T11:11:34.881Z,0.53
2019-05-09T11:16:45.862Z,2.67
2019-05-09T11:21:43.410Z,2.57
2019-05-09T11:26:48.110Z,1.30
2019-05-09T11:31:51.732Z,1.50
2019-05-09T11:36:57.731Z,1.13
2019-05-09T11:42:00.306Z,3.33
2019-05-09T11:47:03.609Z,1.87
2019-05-09T11:52:08.359Z,0.40
2019-05-09T11:57:11.764Z,0.57
2019-05-09T12:02:15.057Z,0.43
2019-05-09T12:07:18.366Z,0.60
2019-05-09T12:12:22.047Z,0.40
2019-05-09T12:17:25.350Z,0.73
2019-05-09T12:22:28.724Z,1.27
2019-05-09T12:27:32.269Z,0.63
2019-05-09T12:32:35.584Z,0.50
2019-05-09T12:37:39.541Z,0.43
2019-05-09T12:42:42.842Z,0.20
2019-05-09T12:47:46.386Z,1.00
2019-05-09T12:52:49.688Z,0.53
2019-05-09T12:57:52.986Z,0.57
2019-05-09T13:02:59.224Z,0.17
2019-05-09T13:08:01.821Z,0.63
2019-05-09T13:13:08.322Z,1.27
2019-05-09T13:18:21.662Z,0.10
2019-05-09T13:23:17.745Z,0.30
2019-05-09T13:28:20.624Z,0.10
2019-05-09T13:33:24.165Z,0.30
2019-05-09T13:38:27.690Z,0.33
2019-05-09T13:43:31.041Z,0.30
2019-05-09T13:48:57.082Z,0.10
2019-05-09T13:53:39.374Z,1.73
2019-05-09T13:58:42.675Z,0.10
2019-05-09T14:03:48.843Z,0.90
2019-05-09T14:08:51.325Z,0.30
2019-05-09T14:13:54.588Z,0.63
2019-05-09T14:19:00.594Z,0.30
2019-05-09T14:24:12.261Z,1.90
2019-05-09T14:29:12.112Z,0.43
2019-05-09T14:34:13.205Z,1.43
2019-05-09T14:39:18.044Z,0.50
2019-05-09T14:44:21.548Z,0.37
2019-05-09T14:49:39.450Z,0.30
2019-05-09T14:54:30.068Z,0.10
2019-05-09T14:59:33.349Z,0.77
2019-05-09T15:04:38.703Z,2.37
2019-05-09T15:09:41.657Z,1.30
2019-05-09T15:14:45.084Z,0.40
2019-05-09T15:19:57.443Z,1.53
2019-05-09T15:24:53.638Z,0.40
2019-05-09T15:29:58.425Z,0.10
2019-05-09T15:35:02.092Z,0.53
2019-05-09T15:40:08.456Z,0.37
2019-05-09T15:45:11.246Z,0.60
2019-05-09T15:50:20.056Z,0.40
2019-05-09T15:55:20.009Z,1.93
2019-05-09T16:00:23.287Z,1.40
2019-05-09T16:05:26.571Z,1.57
2019-05-09T16:10:30.098Z,1.70
2019-05-09T16:15:33.637Z,1.50
2019-05-09T16:20:40.948Z,0.43
2019-05-09T16:25:42.330Z,1.47
2019-05-09T16:30:48.191Z,1.13
2019-05-09T16:35:52.848Z,2.00
2019-05-09T16:40:58.231Z,2.10
2019-05-09T16:46:01.581Z,2.47
2019-05-09T16:51:04.871Z,3.80
2019-05-09T16:56:08.257Z,5.80
2019-05-09T17:01:11.895Z,2.60
2019-05-09T17:06:15.410Z,3.27
2019-05-09T17:11:19.346Z,1.60
2019-05-09T17:16:22.676Z,2.10
2019-05-09T17:21:42.684Z,2.83
2019-05-09T17:26:48.693Z,1.63
2019-05-09T17:31:50.998Z,2.50
2019-05-09T17:36:54.277Z,2.30
2019-05-09T17:41:59.101Z,2.30
2019-05-09T17:47:02.684Z,1.93
2019-05-09T17:52:07.678Z,1.53
2019-05-09T17:57:10.924Z,2.03
2019-05-09T18:02:14.465Z,1.30
2019-05-09T18:07:18.175Z,1.27
2019-05-09T18:12:21.494Z,1.47
2019-05-09T18:17:24.776Z,2.40
2019-05-09T18:22:28.057Z,0.97
2019-05-09T18:27:31.325Z,1.80
2019-05-09T18:32:52.436Z,0.80
2019-05-09T18:37:55.723Z,2.17
2019-05-09T18:42:59.012Z,1.27
2019-05-09T18:48:02.301Z,2.77
2019-05-09T18:53:05.838Z,1.57
2019-05-09T18:58:09.488Z,1.27
2019-05-09T19:03:13.051Z,1.13
2019-05-09T19:08:16.331Z,0.73
2019-05-09T19:13:19.867Z,2.23
2019-05-09T19:18:25.031Z,2.20
2019-05-09T19:23:28.312Z,2.70
2019-05-09T19:28:31.603Z,2.67
2019-05-09T19:33:35.128Z,4.37
2019-05-09T19:38:38.661Z,3.63
2019-05-09T19:43:41.950Z,4.20
2019-05-09T19:48:45.473Z,4.23
2019-05-09T19:53:48.758Z,4.17
2019-05-09T19:58:52.129Z,3.50
2019-05-09T20:03:55.400Z,3.77
2019-05-09T20:08:58.905Z,5.20
2019-05-09T20:14:06.282Z,5.37
2019-05-09T20:19:09.800Z,7.00
2019-05-09T20:24:13.075Z,3.93
2019-05-09T20:29:16.356Z,3.93
2019-05-09T20:34:19.628Z,5.90
2019-05-09T20:39:23.337Z,5.37
2019-05-09T20:44:27.047Z,4.70
2019-05-09T20:49:30.740Z,6.97
2019-05-09T20:54:34.211Z,4.47
2019-05-09T20:59:37.695Z,3.40
2019-05-09T21:04:42.784Z,2.87
2019-05-09T21:09:48.882Z,2.73
2019-05-09T21:14:52.596Z,3.20
2019-05-09T21:19:56.050Z,3.90
2019-05-09T21:24:59.760Z,4.67
2019-05-09T21:30:04.951Z,5.33
2019-05-09T21:35:08.305Z,1.83
2019-05-09T21:40:12.072Z,3.40
2019-05-09T21:45:15.947Z,3.73
2019-05-09T21:50:20.551Z,4.33
2019-05-09T21:55:23.841Z,6.30
2019-05-09T22:00:31.566Z,6.20
2019-05-09T22:05:36.157Z,7.63
2019-05-09T22:10:39.523Z,7.60
2019-05-09T22:15:42.797Z,7.80
2019-05-09T22:20:46.407Z,10.00
2019-05-09T22:25:49.690Z,8.80
2019-05-09T22:30:56.109Z,8.30
2019-05-09T22:35:59.625Z,10.80
2019-05-09T22:41:02.911Z,8.00
2019-05-09T22:46:07.166Z,10.13
2019-05-09T22:51:11.976Z,9.37
2019-05-09T22:56:15.266Z,10.57
2019-05-09T23:01:18.541Z,9.57
2019-05-09T23:06:22.061Z,10.63
2019-05-09T23:11:25.513Z,14.80
2019-05-09T23:16:32.223Z,12.00
2019-05-09T23:21:35.506Z,13.43
2019-05-09T23:26:40.665Z,11.97
2019-05-09T23:31:52.809Z,12.83
2019-05-09T23:36:59.020Z,11.00
2019-05-09T23:42:03.961Z,13.40
2019-05-09T23:47:07.503Z,11.40
2019-05-09T23:52:10.802Z,10.60
2019-05-09T23:57:32.560Z,10.60
